sensor_id;sensor_type;location;lat;lon;timestamp;P1;durP1;ratioP1;P2;durP2;ratioP2
4597;SDS011;62772;48.646;8.906;2022-08-19T00:03:39;21.13;;;14.10;;
4597;SDS011;62772;48.646;8.906;2022-08-19T00:08:40;23.97;;;12.40;;
4597;SDS011;62772;48.646;8.906;2022-08-19T00:13:43;23.70;;;14.53;;
4597;SDS011;62772;48.646;8.906;2022-08-19T00:18:45;25.13;;;13.93;;
4597;SDS011;62772;48.646;8.906;2022-08-19T00:23:46;22.93;;;13.60;;
4597;SDS011;62772;48.646;8.906;2022-08-19T00:28:50;23.70;;;14.30;;
4597;SDS011;62772;48.646;8.906;2022-08-19T00:33:51;21.90;;;13.70;;
4597;SDS011;62772;48.646;8.906;2022-08-19T00:38:51;24.33;;;14.60;;
4597;SDS011;62772;48.646;8.906;2022-08-19T00:44:05;23.23;;;14.10;;
4597;SDS011;62772;48.646;8.906;2022-08-19T00:49:09;24.60;;;14.90;;
4597;SDS011;62772;48.646;8.906;2022-08-19T00:54:17;27.93;;;15.70;;
4597;SDS011;62772;48.646;8.906;2022-08-19T00:59:21;24.77;;;15.77;;
4597;SDS011;62772;48.646;8.906;2022-08-19T01:04:22;25.70;;;15.30;;
4597;SDS011;62772;48.646;8.906;2022-08-19T01:09:23;23.83;;;15.60;;
4597;SDS011;62772;48.646;8.906;2022-08-19T01:14:26;26.53;;;15.60;;
4597;SDS011;62772;48.646;8.906;2022-08-19T01:19:28;26.20;;;15.40;;
4597;SDS011;62772;48.646;8.906;2022-08-19T01:24:33;23.33;;;14.67;;
4597;SDS011;62772;48.646;8.906;2022-08-19T01:29:36;26.43;;;16.07;;
4597;SDS011;62772;48.646;8.906;2022-08-19T01:34:38;25.50;;;15.30;;
4597;SDS011;62772;48.646;8.906;2022-08-19T01:39:42;27.87;;;16.20;;
4597;SDS011;62772;48.646;8.906;2022-08-19T01:44:43;29.40;;;18.10;;
4597;SDS011;62772;48.646;8.906;2022-08-19T01:49:43;30.47;;;17.13;;
4597;SDS011;62772;48.646;8.906;2022-08-19T01:54:47;30.63;;;17.63;;
4597;SDS011;62772;48.646;8.906;2022-08-19T01:59:47;30.73;;;18.07;;
4597;SDS011;62772;48.646;8.906;2022-08-19T02:04:48;31.50;;;18.07;;
4597;SDS011;62772;48.646;8.906;2022-08-19T02:09:51;30.63;;;17.93;;
4597;SDS011;62772;48.646;8.906;2022-08-19T02:14:52;29.00;;;17.00;;
4597;SDS011;62772;48.646;8.906;2022-08-19T02:19:53;30.33;;;18.47;;
4597;SDS011;62772;48.646;8.906;2022-08-19T02:24:56;29.70;;;18.70;;
4597;SDS011;62772;48.646;8.906;2022-08-19T02:29:57;33.13;;;19.00;;
4597;SDS011;62772;48.646;8.906;2022-08-19T02:34:58;28.50;;;18.13;;
4597;SDS011;62772;48.646;8.906;2022-08-19T02:40:01;28.13;;;17.87;;
4597;SDS011;62772;48.646;8.906;2022-08-19T02:45:03;29.30;;;18.67;;
4597;SDS011;62772;48.646;8.906;2022-08-19T02:50:05;33.90;;;18.90;;
4597;SDS011;62772;48.646;8.906;2022-08-19T02:55:10;35.80;;;19.30;;
4597;SDS011;62772;48.646;8.906;2022-08-19T03:00:11;32.40;;;19.27;;
4597;SDS011;62772;48.646;8.906;2022-08-19T03:05:12;29.23;;;17.90;;
4597;SDS011;62772;48.646;8.906;2022-08-19T03:10:16;31.80;;;19.70;;
4597;SDS011;62772;48.646;8.906;2022-08-19T03:15:16;30.37;;;18.57;;
4597;SDS011;62772;48.646;8.906;2022-08-19T03:20:17;31.10;;;19.03;;
4597;SDS011;62772;48.646;8.906;2022-08-19T03:25:21;32.13;;;19.67;;
4597;SDS011;62772;48.646;8.906;2022-08-19T03:30:21;37.70;;;20.47;;
4597;SDS011;62772;48.646;8.906;2022-08-19T03:35:22;31.50;;;19.00;;
4597;SDS011;62772;48.646;8.906;2022-08-19T03:40:25;35.27;;;21.07;;
4597;SDS011;62772;48.646;8.906;2022-08-19T03:45:26;39.13;;;20.87;;
4597;SDS011;62772;48.646;8.906;2022-08-19T03:50:27;33.70;;;20.03;;
4597;SDS011;62772;48.646;8.906;2022-08-19T03:55:30;33.93;;;20.73;;
4597;SDS011;62772;48.646;8.906;2022-08-19T04:00:31;32.23;;;20.83;;
4597;SDS011;62772;48.646;8.906;2022-08-19T04:05:32;36.20;;;21.40;;
4597;SDS011;62772;48.646;8.906;2022-08-19T04:10:37;37.00;;;21.57;;
4597;SDS011;62772;48.646;8.906;2022-08-19T04:15:39;41.80;;;23.67;;
4597;SDS011;62772;48.646;8.906;2022-08-19T04:20:42;36.47;;;21.50;;
4597;SDS011;62772;48.646;8.906;2022-08-19T04:25:46;42.80;;;23.17;;
4597;SDS011;62772;48.646;8.906;2022-08-19T04:30:47;36.37;;;23.27;;
4597;SDS011;62772;48.646;8.906;2022-08-19T04:35:50;36.80;;;22.33;;
4597;SDS011;62772;48.646;8.906;2022-08-19T04:40:55;40.40;;;23.17;;
4597;SDS011;62772;48.646;8.906;2022-08-19T04:46:14;39.60;;;22.60;;
4597;SDS011;62772;48.646;8.906;2022-08-19T04:51:15;40.73;;;21.70;;
4597;SDS011;62772;48.646;8.906;2022-08-19T04:56:20;35.23;;;21.70;;
4597;SDS011;62772;48.646;8.906;2022-08-19T05:01:23;40.43;;;21.80;;
4597;SDS011;62772;48.646;8.906;2022-08-19T05:06:26;36.40;;;21.80;;
4597;SDS011;62772;48.646;8.906;2022-08-19T05:11:32;38.17;;;22.27;;
4597;SDS011;62772;48.646;8.906;2022-08-19T05:16:34;37.80;;;23.27;;
4597;SDS011;62772;48.646;8.906;2022-08-19T05:21:35;41.77;;;23.23;;
4597;SDS011;62772;48.646;8.906;2022-08-19T05:26:58;38.07;;;21.07;;
4597;SDS011;62772;48.646;8.906;2022-08-19T05:31:58;36.90;;;22.50;;
4597;SDS011;62772;48.646;8.906;2022-08-19T05:37:01;33.30;;;20.87;;
4597;SDS011;62772;48.646;8.906;2022-08-19T05:42:05;36.00;;;21.93;;
4597;SDS011;62772;48.646;8.906;2022-08-19T05:47:07;39.47;;;22.90;;
4597;SDS011;62772;48.646;8.906;2022-08-19T05:52:09;39.23;;;23.17;;
4597;SDS011;62772;48.646;8.906;2022-08-19T05:57:14;37.63;;;21.10;;
4597;SDS011;62772;48.646;8.906;2022-08-19T06:02:15;36.67;;;21.50;;
4597;SDS011;62772;48.646;8.906;2022-08-19T06:07:16;37.90;;;21.87;;
4597;SDS011;62772;48.646;8.906;2022-08-19T06:12:19;37.40;;;21.33;;
4597;SDS011;62772;48.646;8.906;2022-08-19T06:17:31;39.17;;;22.00;;
4597;SDS011;62772;48.646;8.906;2022-08-19T06:22:36;38.00;;;21.17;;
4597;SDS011;62772;48.646;8.906;2022-08-19T06:27:41;43.20;;;23.07;;
4597;SDS011;62772;48.646;8.906;2022-08-19T06:32:42;40.13;;;21.60;;
4597;SDS011;62772;48.646;8.906;2022-08-19T06:37:42;38.60;;;21.83;;
4597;SDS011;62772;48.646;8.906;2022-08-19T06:42:47;38.27;;;20.77;;
4597;SDS011;62772;48.646;8.906;2022-08-19T06:47:48;39.53;;;21.27;;
4597;SDS011;62772;48.646;8.906;2022-08-19T06:52:49;36.33;;;21.03;;
4597;SDS011;62772;48.646;8.906;2022-08-19T06:57:52;36.33;;;20.60;;
4597;SDS011;62772;48.646;8.906;2022-08-19T07:02:53;34.30;;;21.00;;
4597;SDS011;62772;48.646;8.906;2022-08-19T07:07:54;30.87;;;19.77;;
4597;SDS011;62772;48.646;8.906;2022-08-19T07:12:57;33.00;;;19.40;;
4597;SDS011;62772;48.646;8.906;2022-08-19T07:17:58;31.50;;;17.80;;
4597;SDS011;62772;48.646;8.906;2022-08-19T07:22:59;29.90;;;18.30;;
4597;SDS011;62772;48.646;8.906;2022-08-19T07:28:02;29.53;;;17.83;;
4597;SDS011;62772;48.646;8.906;2022-08-19T07:33:03;29.03;;;17.30;;
4597;SDS011;62772;48.646;8.906;2022-08-19T07:38:04;29.67;;;18.57;;
4597;SDS011;62772;48.646;8.906;2022-08-19T07:43:07;30.00;;;16.47;;
4597;SDS011;62772;48.646;8.906;2022-08-19T07:48:08;25.83;;;15.00;;
4597;SDS011;62772;48.646;8.906;2022-08-19T07:53:09;28.50;;;16.23;;
4597;SDS011;62772;48.646;8.906;2022-08-19T07:58:15;28.57;;;16.90;;
4597;SDS011;62772;48.646;8.906;2022-08-19T08:03:19;31.80;;;17.27;;
4597;SDS011;62772;48.646;8.906;2022-08-19T08:08:42;30.30;;;17.00;;
4597;SDS011;62772;48.646;8.906;2022-08-19T08:14:03;25.13;;;16.83;;
4597;SDS011;62772;48.646;8.906;2022-08-19T08:19:05;25.87;;;14.97;;
4597;SDS011;62772;48.646;8.906;2022-08-19T08:24:06;24.97;;;16.83;;
4597;SDS011;62772;48.646;8.906;2022-08-19T08:29:09;23.27;;;16.33;;
4597;SDS011;62772;48.646;8.906;2022-08-19T08:34:11;23.43;;;16.50;;
4597;SDS011;62772;48.646;8.906;2022-08-19T08:39:14;26.17;;;16.00;;
4597;SDS011;62772;48.646;8.906;2022-08-19T08:44:20;27.77;;;16.27;;
4597;SDS011;62772;48.646;8.906;2022-08-19T08:49:26;30.13;;;16.00;;
4597;SDS011;62772;48.646;8.906;2022-08-19T08:54:34;29.10;;;16.33;;
4597;SDS011;62772;48.646;8.906;2022-08-19T08:59:40;24.37;;;15.77;;
4597;SDS011;62772;48.646;8.906;2022-08-19T09:04:43;23.10;;;15.97;;
4597;SDS011;62772;48.646;8.906;2022-08-19T09:09:45;25.90;;;16.17;;
4597;SDS011;62772;48.646;8.906;2022-08-19T09:14:52;25.37;;;17.70;;
4597;SDS011;62772;48.646;8.906;2022-08-19T09:19:58;24.87;;;17.10;;
4597;SDS011;62772;48.646;8.906;2022-08-19T09:25:06;26.90;;;17.10;;
4597;SDS011;62772;48.646;8.906;2022-08-19T09:30:13;28.10;;;18.10;;
4597;SDS011;62772;48.646;8.906;2022-08-19T09:35:17;25.60;;;16.67;;
4597;SDS011;62772;48.646;8.906;2022-08-19T09:40:18;28.20;;;18.93;;
4597;SDS011;62772;48.646;8.906;2022-08-19T09:45:21;27.47;;;17.20;;
4597;SDS011;62772;48.646;8.906;2022-08-19T09:50:22;27.97;;;18.73;;
4597;SDS011;62772;48.646;8.906;2022-08-19T09:55:24;29.90;;;18.30;;
4597;SDS011;62772;48.646;8.906;2022-08-19T10:00:28;25.90;;;17.77;;
4597;SDS011;62772;48.646;8.906;2022-08-19T10:05:29;24.73;;;16.90;;
4597;SDS011;62772;48.646;8.906;2022-08-19T10:10:48;27.23;;;17.03;;
4597;SDS011;62772;48.646;8.906;2022-08-19T10:15:53;29.87;;;17.00;;
4597;SDS011;62772;48.646;8.906;2022-08-19T10:21:02;22.13;;;15.00;;
4597;SDS011;62772;48.646;8.906;2022-08-19T10:26:08;27.50;;;16.50;;
4597;SDS011;62772;48.646;8.906;2022-08-19T10:31:13;22.43;;;14.70;;
4597;SDS011;62772;48.646;8.906;2022-08-19T10:36:18;24.23;;;14.03;;
4597;SDS011;62772;48.646;8.906;2022-08-19T10:41:23;20.60;;;14.17;;
4597;SDS011;62772;48.646;8.906;2022-08-19T10:46:28;21.37;;;13.97;;
4597;SDS011;62772;48.646;8.906;2022-08-19T10:51:32;22.17;;;12.47;;
4597;SDS011;62772;48.646;8.906;2022-08-19T10:56:52;20.63;;;13.33;;
4597;SDS011;62772;48.646;8.906;2022-08-19T11:01:58;18.70;;;12.90;;
4597;SDS011;62772;48.646;8.906;2022-08-19T11:07:00;21.90;;;13.13;;
4597;SDS011;62772;48.646;8.906;2022-08-19T11:12:02;16.50;;;11.67;;
4597;SDS011;62772;48.646;8.906;2022-08-19T11:17:06;19.27;;;11.90;;
4597;SDS011;62772;48.646;8.906;2022-08-19T11:22:07;13.70;;;9.90;;
4597;SDS011;62772;48.646;8.906;2022-08-19T11:27:09;14.27;;;9.90;;
4597;SDS011;62772;48.646;8.906;2022-08-19T11:32:13;15.50;;;10.10;;
4597;SDS011;62772;48.646;8.906;2022-08-19T11:37:14;15.27;;;10.70;;
4597;SDS011;62772;48.646;8.906;2022-08-19T11:42:15;12.20;;;9.20;;
4597;SDS011;62772;48.646;8.906;2022-08-19T11:47:39;15.90;;;9.77;;
4597;SDS011;62772;48.646;8.906;2022-08-19T11:52:40;12.33;;;9.10;;
4597;SDS011;62772;48.646;8.906;2022-08-19T11:57:40;12.70;;;9.40;;
4597;SDS011;62772;48.646;8.906;2022-08-19T12:02:45;13.50;;;9.47;;
4597;SDS011;62772;48.646;8.906;2022-08-19T12:07:46;14.63;;;9.30;;
4597;SDS011;62772;48.646;8.906;2022-08-19T12:12:46;13.57;;;9.50;;
4597;SDS011;62772;48.646;8.906;2022-08-19T12:17:50;11.80;;;8.77;;
4597;SDS011;62772;48.646;8.906;2022-08-19T12:22:52;10.13;;;7.90;;
4597;SDS011;62772;48.646;8.906;2022-08-19T12:27:52;13.10;;;7.30;;
4597;SDS011;62772;48.646;8.906;2022-08-19T12:32:56;13.80;;;8.50;;
4597;SDS011;62772;48.646;8.906;2022-08-19T12:37:57;11.90;;;8.47;;
4597;SDS011;62772;48.646;8.906;2022-08-19T12:42:57;12.17;;;7.90;;
4597;SDS011;62772;48.646;8.906;2022-08-19T12:48:02;10.87;;;7.30;;
4597;SDS011;62772;48.646;8.906;2022-08-19T12:53:02;12.10;;;7.47;;
4597;SDS011;62772;48.646;8.906;2022-08-19T12:58:03;12.37;;;7.67;;
4597;SDS011;62772;48.646;8.906;2022-08-19T13:03:07;10.37;;;7.37;;
4597;SDS011;62772;48.646;8.906;2022-08-19T13:08:07;10.13;;;7.93;;
4597;SDS011;62772;48.646;8.906;2022-08-19T13:13:08;10.23;;;7.27;;
4597;SDS011;62772;48.646;8.906;2022-08-19T13:18:14;9.20;;;6.90;;
4597;SDS011;62772;48.646;8.906;2022-08-19T13:23:15;16.17;;;8.70;;
4597;SDS011;62772;48.646;8.906;2022-08-19T13:28:16;12.37;;;9.20;;
4597;SDS011;62772;48.646;8.906;2022-08-19T13:33:23;11.50;;;8.90;;
4597;SDS011;62772;48.646;8.906;2022-08-19T13:38:26;14.27;;;9.60;;
4597;SDS011;62772;48.646;8.906;2022-08-19T13:43:28;17.00;;;10.40;;
4597;SDS011;62772;48.646;8.906;2022-08-19T13:48:31;15.10;;;9.77;;
4597;SDS011;62772;48.646;8.906;2022-08-19T13:53:32;12.50;;;10.30;;
4597;SDS011;62772;48.646;8.906;2022-08-19T13:58:33;17.07;;;9.97;;
4597;SDS011;62772;48.646;8.906;2022-08-19T14:03:37;15.20;;;9.27;;
4597;SDS011;62772;48.646;8.906;2022-08-19T14:08:38;14.20;;;10.03;;
4597;SDS011;62772;48.646;8.906;2022-08-19T14:13:41;11.77;;;9.00;;
4597;SDS011;62772;48.646;8.906;2022-08-19T14:18:45;15.90;;;9.23;;
4597;SDS011;62772;48.646;8.906;2022-08-19T14:23:48;15.00;;;10.15;;
4597;SDS011;62772;48.646;8.906;2022-08-19T14:28:50;13.33;;;8.77;;
4597;SDS011;62772;48.646;8.906;2022-08-19T14:33:54;10.83;;;7.70;;
4597;SDS011;62772;48.646;8.906;2022-08-19T14:38:55;10.73;;;8.90;;
4597;SDS011;62772;48.646;8.906;2022-08-19T14:43:57;11.13;;;8.50;;
4597;SDS011;62772;48.646;8.906;2022-08-19T14:49:01;15.10;;;9.43;;
4597;SDS011;62772;48.646;8.906;2022-08-19T14:54:02;12.60;;;9.17;;
4597;SDS011;62772;48.646;8.906;2022-08-19T14:59:03;11.00;;;8.53;;
4597;SDS011;62772;48.646;8.906;2022-08-19T15:04:06;13.03;;;8.70;;
4597;SDS011;62772;48.646;8.906;2022-08-19T15:09:07;11.23;;;8.47;;
4597;SDS011;62772;48.646;8.906;2022-08-19T15:14:08;14.93;;;8.17;;
4597;SDS011;62772;48.646;8.906;2022-08-19T15:19:15;13.07;;;8.40;;
4597;SDS011;62772;48.646;8.906;2022-08-19T15:24:16;13.27;;;8.53;;
4597;SDS011;62772;48.646;8.906;2022-08-19T15:29:17;12.20;;;8.20;;
4597;SDS011;62772;48.646;8.906;2022-08-19T15:34:21;14.30;;;8.60;;
4597;SDS011;62772;48.646;8.906;2022-08-19T15:39:22;14.30;;;9.10;;
4597;SDS011;62772;48.646;8.906;2022-08-19T15:44:22;12.90;;;8.40;;
4597;SDS011;62772;48.646;8.906;2022-08-19T15:49:26;12.33;;;8.50;;
4597;SDS011;62772;48.646;8.906;2022-08-19T15:54:27;9.77;;;8.10;;
4597;SDS011;62772;48.646;8.906;2022-08-19T15:59:27;23.98;;;8.82;;
4597;SDS011;62772;48.646;8.906;2022-08-19T16:04:49;12.23;;;8.40;;
4597;SDS011;62772;48.646;8.906;2022-08-19T16:10:09;15.88;;;8.20;;
4597;SDS011;62772;48.646;8.906;2022-08-19T16:15:11;12.80;;;8.30;;
4597;SDS011;62772;48.646;8.906;2022-08-19T16:20:16;10.63;;;7.30;;
4597;SDS011;62772;48.646;8.906;2022-08-19T16:25:19;10.70;;;7.33;;
4597;SDS011;62772;48.646;8.906;2022-08-19T16:30:20;10.07;;;7.20;;
4597;SDS011;62772;48.646;8.906;2022-08-19T16:35:23;12.65;;;7.28;;
4597;SDS011;62772;48.646;8.906;2022-08-19T16:40:24;14.65;;;9.20;;
4597;SDS011;62772;48.646;8.906;2022-08-19T16:45:25;13.87;;;7.40;;
4597;SDS011;62772;48.646;8.906;2022-08-19T16:50:28;14.38;;;7.63;;
4597;SDS011;62772;48.646;8.906;2022-08-19T16:55:29;10.82;;;7.30;;
4597;SDS011;62772;48.646;8.906;2022-08-19T17:00:29;10.38;;;6.97;;
4597;SDS011;62772;48.646;8.906;2022-08-19T17:05:33;8.33;;;6.77;;
4597;SDS011;62772;48.646;8.906;2022-08-19T17:10:34;10.70;;;6.55;;
4597;SDS011;62772;48.646;8.906;2022-08-19T17:15:37;8.90;;;6.32;;
4597;SDS011;62772;48.646;8.906;2022-08-19T17:20:41;13.55;;;7.03;;
4597;SDS011;62772;48.646;8.906;2022-08-19T17:25:43;11.52;;;6.47;;
4597;SDS011;62772;48.646;8.906;2022-08-19T17:30:48;8.70;;;6.32;;
4597;SDS011;62772;48.646;8.906;2022-08-19T17:35:52;10.48;;;6.25;;
4597;SDS011;62772;48.646;8.906;2022-08-19T17:40:53;7.88;;;5.70;;
4597;SDS011;62772;48.646;8.906;2022-08-19T17:46:00;8.55;;;6.10;;
4597;SDS011;62772;48.646;8.906;2022-08-19T17:51:14;8.80;;;6.18;;
4597;SDS011;62772;48.646;8.906;2022-08-19T17:56:16;7.78;;;5.80;;
4597;SDS011;62772;48.646;8.906;2022-08-19T18:01:17;8.10;;;6.40;;
4597;SDS011;62772;48.646;8.906;2022-08-19T18:06:20;9.95;;;6.50;;
4597;SDS011;62772;48.646;8.906;2022-08-19T18:11:22;8.40;;;6.00;;
4597;SDS011;62772;48.646;8.906;2022-08-19T18:16:23;9.02;;;6.70;;
4597;SDS011;62772;48.646;8.906;2022-08-19T18:21:26;12.60;;;7.38;;
4597;SDS011;62772;48.646;8.906;2022-08-19T18:26:30;10.18;;;6.95;;
4597;SDS011;62772;48.646;8.906;2022-08-19T18:31:31;11.17;;;7.77;;
4597;SDS011;62772;48.646;8.906;2022-08-19T18:36:35;15.20;;;8.63;;
4597;SDS011;62772;48.646;8.906;2022-08-19T18:41:35;10.53;;;8.60;;
4597;SDS011;62772;48.646;8.906;2022-08-19T18:46:55;13.23;;;9.47;;
4597;SDS011;62772;48.646;8.906;2022-08-19T18:52:16;12.17;;;8.57;;
4597;SDS011;62772;48.646;8.906;2022-08-19T18:57:18;11.47;;;7.77;;
4597;SDS011;62772;48.646;8.906;2022-08-19T19:02:24;11.90;;;7.97;;
4597;SDS011;62772;48.646;8.906;2022-08-19T19:07:28;13.17;;;8.50;;
4597;SDS011;62772;48.646;8.906;2022-08-19T19:12:29;11.53;;;7.53;;
4597;SDS011;62772;48.646;8.906;2022-08-19T19:17:30;11.67;;;7.70;;
4597;SDS011;62772;48.646;8.906;2022-08-19T19:22:33;11.40;;;7.77;;
4597;SDS011;62772;48.646;8.906;2022-08-19T19:27:34;10.80;;;7.40;;
4597;SDS011;62772;48.646;8.906;2022-08-19T19:32:35;11.10;;;8.03;;
4597;SDS011;62772;48.646;8.906;2022-08-19T19:37:39;9.53;;;7.33;;
4597;SDS011;62772;48.646;8.906;2022-08-19T19:42:42;10.00;;;7.10;;
4597;SDS011;62772;48.646;8.906;2022-08-19T19:47:44;10.67;;;7.80;;
4597;SDS011;62772;48.646;8.906;2022-08-19T19:52:49;12.00;;;7.50;;
4597;SDS011;62772;48.646;8.906;2022-08-19T19:57:50;11.47;;;7.73;;
4597;SDS011;62772;48.646;8.906;2022-08-19T20:02:52;11.23;;;6.60;;
4597;SDS011;62772;48.646;8.906;2022-08-19T20:07:57;9.90;;;6.87;;
4597;SDS011;62772;48.646;8.906;2022-08-19T20:13:16;8.70;;;6.17;;
4597;SDS011;62772;48.646;8.906;2022-08-19T20:18:17;8.93;;;6.20;;
4597;SDS011;62772;48.646;8.906;2022-08-19T20:23:21;9.20;;;6.27;;
4597;SDS011;62772;48.646;8.906;2022-08-19T20:28:22;8.17;;;5.60;;
4597;SDS011;62772;48.646;8.906;2022-08-19T20:33:23;7.50;;;5.30;;
4597;SDS011;62772;48.646;8.906;2022-08-19T20:38:26;7.30;;;4.47;;
4597;SDS011;62772;48.646;8.906;2022-08-19T20:43:27;6.53;;;4.70;;
4597;SDS011;62772;48.646;8.906;2022-08-19T20:48:28;5.37;;;3.50;;
4597;SDS011;62772;48.646;8.906;2022-08-19T20:53:32;6.00;;;3.80;;
4597;SDS011;62772;48.646;8.906;2022-08-19T20:58:33;5.70;;;3.70;;
4597;SDS011;62772;48.646;8.906;2022-08-19T21:03:37;5.70;;;3.20;;
4597;SDS011;62772;48.646;8.906;2022-08-19T21:08:43;6.43;;;3.40;;
4597;SDS011;62772;48.646;8.906;2022-08-19T21:13:44;5.73;;;3.33;;
4597;SDS011;62772;48.646;8.906;2022-08-19T21:18:44;9.73;;;3.10;;
4597;SDS011;62772;48.646;8.906;2022-08-19T21:23:48;5.80;;;3.33;;
4597;SDS011;62772;48.646;8.906;2022-08-19T21:28:49;5.87;;;3.60;;
4597;SDS011;62772;48.646;8.906;2022-08-19T21:33:49;5.43;;;3.70;;
4597;SDS011;62772;48.646;8.906;2022-08-19T21:38:53;4.90;;;3.30;;
4597;SDS011;62772;48.646;8.906;2022-08-19T21:43:54;4.00;;;3.03;;
4597;SDS011;62772;48.646;8.906;2022-08-19T21:48:54;6.30;;;3.20;;
4597;SDS011;62772;48.646;8.906;2022-08-19T21:53:58;3.50;;;2.50;;
4597;SDS011;62772;48.646;8.906;2022-08-19T21:58:58;3.37;;;2.17;;
4597;SDS011;62772;48.646;8.906;2022-08-19T22:03:59;3.00;;;2.00;;
4597;SDS011;62772;48.646;8.906;2022-08-19T22:09:03;3.57;;;2.00;;
4597;SDS011;62772;48.646;8.906;2022-08-19T22:14:03;3.27;;;2.10;;
4597;SDS011;62772;48.646;8.906;2022-08-19T22:19:04;3.43;;;1.80;;
4597;SDS011;62772;48.646;8.906;2022-08-19T22:24:08;3.07;;;2.10;;
4597;SDS011;62772;48.646;8.906;2022-08-19T22:29:09;3.17;;;2.17;;
4597;SDS011;62772;48.646;8.906;2022-08-19T22:34:12;3.37;;;1.90;;
4597;SDS011;62772;48.646;8.906;2022-08-19T22:39:16;3.67;;;2.40;;
4597;SDS011;62772;48.646;8.906;2022-08-19T22:44:17;3.07;;;2.00;;
4597;SDS011;62772;48.646;8.906;2022-08-19T22:49:17;3.40;;;2.10;;
4597;SDS011;62772;48.646;8.906;2022-08-19T22:54:21;3.10;;;1.70;;
4597;SDS011;62772;48.646;8.906;2022-08-19T22:59:22;5.50;;;2.10;;
4597;SDS011;62772;48.646;8.906;2022-08-19T23:04:23;3.03;;;2.00;;
4597;SDS011;62772;48.646;8.906;2022-08-19T23:09:26;3.30;;;2.10;;
4597;SDS011;62772;48.646;8.906;2022-08-19T23:14:27;3.40;;;2.10;;
4597;SDS011;62772;48.646;8.906;2022-08-19T23:19:28;3.33;;;2.00;;
4597;SDS011;62772;48.646;8.906;2022-08-19T23:24:31;3.67;;;2.10;;
4597;SDS011;62772;48.646;8.906;2022-08-19T23:29:32;3.17;;;1.77;;
4597;SDS011;62772;48.646;8.906;2022-08-19T23:34:53;5.23;;;1.80;;
4597;SDS011;62772;48.646;8.906;2022-08-19T23:39:57;3.50;;;1.73;;
4597;SDS011;62772;48.646;8.906;2022-08-19T23:44:58;2.60;;;1.87;;
4597;SDS011;62772;48.646;8.906;2022-08-19T23:50:00;4.27;;;1.80;;
4597;SDS011;62772;48.646;8.906;2022-08-19T23:55:08;2.80;;;2.07;;
